Time;durP1;ratioP1;P1;durP2;ratioP2;P2;SDS_P1;SDS_P2;PMS_P1;PMS_P2;Temp;Humidity;BMP_temperature;BMP_pressure;BME280_temperature;BME280_humidity;BME280_pressure;Samples;Min_cycle;Max_cycle;Signal;HPM_P1;HPM_P2
2020/12/02 00:00:37;;;;;;;39.65;17.10;;;1.50;77.70;;;;;;5090982;28;20058;-69
2020/12/02 00:03:12;;;;;;;35.28;16.67;;;1.40;77.60;;;;;;5090700;28;20044;-70
2020/12/02 00:05:42;;;;;;;38.28;16.75;;;1.50;77.60;;;;;;5091012;28;20040;-73
2020/12/02 00:08:16;;;;;;;47.58;17.65;;;1.40;77.60;;;;;;5088697;28;20049;-69
2020/12/02 00:10:43;;;;;;;44.15;17.63;;;1.40;77.50;;;;;;5085473;28;20083;-69
2020/12/02 00:13:13;;;;;;;56.65;18.75;;;1.50;77.80;;;;;;5089060;28;20040;-73
2020/12/02 00:15:40;;;;;;;37.60;17.35;;;1.40;77.60;;;;;;5090412;28;20044;-69
2020/12/02 00:18:08;;;;;;;83.30;19.95;;;1.40;77.50;;;;;;5090850;28;20051;-68
2020/12/02 00:20:35;;;;;;;57.42;17.85;;;1.40;77.50;;;;;;5090535;28;20075;-74
2020/12/02 00:23:02;;;;;;;56.92;19.08;;;1.40;77.60;;;;;;5089308;28;20417;-69
2020/12/02 00:25:29;;;;;;;47.42;16.73;;;1.40;77.70;;;;;;5090038;28;20051;-69
2020/12/02 00:28:00;;;;;;;45.35;17.17;;;1.40;77.60;;;;;;5092300;28;20052;-80
2020/12/02 00:30:27;;;;;;;60.92;19.23;;;1.50;77.90;;;;;;5090706;28;20048;-72
2020/12/02 00:33:06;;;;;;;53.42;18.48;;;1.40;77.70;;;;;;5089033;28;20044;-70
2020/12/02 00:35:34;;;;;;;51.00;19.75;;;1.40;77.60;;;;;;5090574;28;20048;-69
2020/12/02 00:38:01;;;;;;;41.13;17.48;;;1.40;77.60;;;;;;5090422;28;20524;-70
2020/12/02 00:40:31;;;;;;;43.95;18.05;;;1.40;77.70;;;;;;5089632;28;20135;-71
2020/12/02 00:42:58;;;;;;;52.22;17.85;;;1.40;77.70;;;;;;5087947;28;20051;-70
2020/12/02 00:45:24;;;;;;;62.78;19.30;;;1.40;77.60;;;;;;5089266;28;20044;-71
2020/12/02 00:47:52;;;;;;;49.15;20.08;;;1.40;77.60;;;;;;5090342;28;20057;-71
2020/12/02 00:50:22;;;;;;;105.38;22.15;;;1.40;77.60;;;;;;5090133;28;20046;-71
2020/12/02 00:53:01;;;;;;;210.50;26.65;;;1.50;77.70;;;;;;5085580;28;20478;-71
2020/12/02 00:55:27;;;;;;;68.85;19.52;;;1.40;77.60;;;;;;5087947;28;20040;-71
2020/12/02 00:57:55;;;;;;;111.30;22.42;;;1.40;77.70;;;;;;5090473;28;20052;-71
2020/12/02 01:00:25;;;;;;;130.63;22.63;;;1.40;77.50;;;;;;5087969;28;20059;-70
2020/12/02 01:02:58;;;;;;;66.25;19.67;;;1.40;77.50;;;;;;5086353;28;20040;-70
2020/12/02 01:05:26;;;;;;;62.38;20.27;;;1.30;77.40;;;;;;5088388;28;20493;-70
2020/12/02 01:07:54;;;;;;;50.95;19.83;;;1.30;77.40;;;;;;5089263;28;20505;-71
2020/12/02 01:10:21;;;;;;;45.35;19.02;;;1.30;77.40;;;;;;5089811;28;20105;-71
2020/12/02 01:12:49;;;;;;;55.25;19.88;;;1.30;77.40;;;;;;5085621;28;20048;-72
2020/12/02 01:15:20;;;;;;;49.67;19.02;;;1.30;77.40;;;;;;5087226;28;20051;-71
2020/12/02 01:18:13;;;;;;;43.20;18.05;;;1.30;77.40;;;;;;5088899;28;20074;-70
2020/12/02 01:20:41;;;;;;;47.38;18.35;;;1.40;77.50;;;;;;5087957;28;20048;-71
2020/12/02 01:23:14;;;;;;;41.60;17.80;;;1.30;77.50;;;;;;5087928;28;20147;-69
2020/12/02 01:25:45;;;;;;;36.17;18.25;;;1.30;77.50;;;;;;5089619;28;20054;-69
2020/12/02 01:28:18;;;;;;;42.72;17.38;;;1.40;77.80;;;;;;5090933;28;20056;-70
2020/12/02 01:30:46;;;;;;;39.65;16.73;;;1.30;78.00;;;;;;5089214;28;20079;-69
2020/12/02 01:33:15;;;;;;;44.00;18.27;;;1.40;78.00;;;;;;5088547;28;20063;-73
2020/12/02 01:35:47;;;;;;;40.08;17.95;;;1.40;77.80;;;;;;5089204;28;20048;-70
2020/12/02 01:38:20;;;;;;;43.45;17.85;;;1.40;77.80;;;;;;5086860;28;20091;-72
2020/12/02 01:40:49;;;;;;;47.28;17.90;;;1.40;77.90;;;;;;5086817;28;20052;-68
2020/12/02 01:43:16;;;;;;;38.10;16.65;;;1.40;78.00;;;;;;5088547;28;20055;-69
2020/12/02 01:45:46;;;;;;;42.42;16.98;;;1.40;78.20;;;;;;5089761;28;20064;-72
2020/12/02 01:48:31;;;;;;;33.70;15.70;;;1.40;78.00;;;;;;5090699;28;20052;-72
2020/12/02 01:51:02;;;;;;;43.60;18.00;;;1.40;78.10;;;;;;5074991;28;20476;-77
2020/12/02 01:53:39;;;;;;;43.67;17.92;;;1.40;77.90;;;;;;5089047;28;20079;-68
2020/12/02 01:56:15;;;;;;;45.67;18.20;;;1.40;78.10;;;;;;5090168;28;20044;-69
2020/12/02 01:58:48;;;;;;;41.45;18.23;;;1.40;78.20;;;;;;5089813;28;20051;-68
2020/12/02 02:01:20;;;;;;;39.10;17.48;;;1.40;78.20;;;;;;5086572;28;20521;-69
2020/12/02 02:03:49;;;;;;;40.80;16.60;;;1.50;78.20;;;;;;5088916;28;20054;-74
2020/12/02 02:06:22;;;;;;;37.80;16.35;;;1.40;78.20;;;;;;5085893;28;20036;-71
2020/12/02 02:08:48;;;;;;;34.28;15.75;;;1.40;78.10;;;;;;5088560;28;20063;-72
2020/12/02 02:11:21;;;;;;;35.78;16.33;;;1.40;78.20;;;;;;5086810;28;20054;-71
2020/12/02 02:14:09;;;;;;;38.63;16.13;;;1.40;78.20;;;;;;5085710;28;20497;-69
2020/12/02 02:16:40;;;;;;;35.35;15.18;;;1.40;78.10;;;;;;5089706;28;20073;-70
2020/12/02 02:19:14;;;;;;;39.13;16.27;;;1.30;78.10;;;;;;5090225;28;20052;-70
2020/12/02 02:21:41;;;;;;;35.58;15.68;;;1.40;78.10;;;;;;5086169;28;20059;-70
2020/12/02 02:24:09;;;;;;;36.45;14.43;;;1.40;78.20;;;;;;5089849;28;20054;-69
2020/12/02 02:26:40;;;;;;;39.22;16.50;;;1.40;78.20;;;;;;5086805;28;20056;-69
2020/12/02 02:29:11;;;;;;;34.88;15.45;;;1.40;78.10;;;;;;5090236;28;20052;-74
2020/12/02 02:31:45;;;;;;;41.55;17.33;;;1.40;78.20;;;;;;5083743;28;20052;-68
2020/12/02 02:34:13;;;;;;;37.75;16.55;;;1.40;78.30;;;;;;5088703;28;20056;-72
2020/12/02 02:36:41;;;;;;;39.92;17.25;;;1.40;78.20;;;;;;5089728;28;20047;-69
2020/12/02 02:39:10;;;;;;;42.60;16.73;;;1.50;78.40;;;;;;5089790;28;20059;-69
2020/12/02 02:41:38;;;;;;;33.90;15.95;;;1.50;78.20;;;;;;5086441;28;20613;-69
2020/12/02 02:44:06;;;;;;;37.72;15.43;;;1.50;78.20;;;;;;5089236;28;20536;-73
2020/12/02 02:46:33;;;;;;;41.15;16.17;;;1.40;78.10;;;;;;5089245;28;20046;-69
2020/12/02 02:48:59;;;;;;;38.58;15.73;;;1.40;78.10;;;;;;5089803;28;20044;-72
2020/12/02 02:51:26;;;;;;;37.58;16.20;;;1.40;78.10;;;;;;5085778;28;20059;-69
2020/12/02 02:53:53;;;;;;;39.35;16.20;;;1.40;78.00;;;;;;5089327;28;20531;-76
2020/12/02 02:56:20;;;;;;;37.65;16.15;;;1.40;78.10;;;;;;5088165;28;20036;-70
2020/12/02 02:58:48;;;;;;;35.38;15.27;;;1.50;78.20;;;;;;5088326;28;20413;-70
2020/12/02 03:01:15;;;;;;;43.15;15.73;;;1.40;77.80;;;;;;5084488;28;20044;-70
2020/12/02 03:03:42;;;;;;;43.42;16.95;;;1.40;77.50;;;;;;5087477;28;20043;-70
2020/12/02 03:06:09;;;;;;;36.85;16.48;;;1.40;77.80;;;;;;5087380;28;20051;-70
2020/12/02 03:08:37;;;;;;;39.10;15.48;;;1.50;78.00;;;;;;5088424;28;20050;-71
2020/12/02 03:11:07;;;;;;;35.25;15.38;;;1.40;77.90;;;;;;5085348;28;20040;-70
2020/12/02 03:13:40;;;;;;;39.67;16.63;;;1.40;77.90;;;;;;5086323;28;20051;-70
2020/12/02 03:16:24;;;;;;;41.78;16.65;;;1.40;78.00;;;;;;5086513;28;20067;-70
2020/12/02 03:18:54;;;;;;;47.83;17.02;;;1.40;77.90;;;;;;5085933;28;20497;-70
2020/12/02 03:21:22;;;;;;;42.72;16.55;;;1.50;78.10;;;;;;5084308;28;20531;-70
2020/12/02 03:23:51;;;;;;;44.85;16.40;;;1.40;78.00;;;;;;5087853;28;20056;-70
2020/12/02 03:26:18;;;;;;;42.50;17.65;;;1.40;78.00;;;;;;5086926;28;20048;-71
2020/12/02 03:28:46;;;;;;;47.17;17.10;;;1.40;78.10;;;;;;5087492;28;20131;-70
2020/12/02 03:31:17;;;;;;;40.97;17.17;;;1.40;78.00;;;;;;5085530;28;20050;-70
2020/12/02 03:33:44;;;;;;;42.35;16.25;;;1.40;78.10;;;;;;5086913;28;20398;-70
2020/12/02 03:36:14;;;;;;;41.05;16.67;;;1.40;78.10;;;;;;5087116;28;20501;-70
2020/12/02 03:38:41;;;;;;;43.28;17.35;;;1.50;78.20;;;;;;5088034;28;20056;-70
2020/12/02 03:41:09;;;;;;;41.60;17.25;;;1.50;78.20;;;;;;5085047;28;20040;-71
2020/12/02 03:43:36;;;;;;;43.58;17.08;;;1.50;78.20;;;;;;5085832;28;20044;-70
2020/12/02 03:46:04;;;;;;;46.88;18.17;;;1.50;78.10;;;;;;5088976;28;20040;-70
2020/12/02 03:48:31;;;;;;;42.67;16.02;;;1.50;78.20;;;;;;5090024;28;20489;-70
2020/12/02 03:50:59;;;;;;;38.13;16.20;;;1.50;78.10;;;;;;5090018;28;20048;-69
2020/12/02 03:53:25;;;;;;;38.60;16.35;;;1.50;78.20;;;;;;5088464;28;20040;-71
2020/12/02 03:55:52;;;;;;;37.38;16.63;;;1.50;78.20;;;;;;5089204;28;20044;-70
2020/12/02 03:58:20;;;;;;;47.65;18.35;;;1.50;78.20;;;;;;5091436;28;20528;-70
2020/12/02 04:00:47;;;;;;;40.83;16.05;;;1.60;78.30;;;;;;5089369;28;20059;-71
2020/12/02 04:03:13;;;;;;;45.00;16.40;;;1.60;78.30;;;;;;5088444;28;20048;-69
2020/12/02 04:05:42;;;;;;;43.90;16.83;;;1.60;78.30;;;;;;5089930;28;20132;-70
2020/12/02 04:08:08;;;;;;;42.67;17.50;;;1.60;78.00;;;;;;5091478;28;20043;-70
2020/12/02 04:10:35;;;;;;;37.50;16.33;;;1.60;78.00;;;;;;5088717;28;20048;-69
2020/12/02 04:13:03;;;;;;;42.08;16.35;;;1.50;77.80;;;;;;5088887;28;20044;-69
2020/12/02 04:15:30;;;;;;;39.58;16.90;;;1.60;77.90;;;;;;5086252;28;20048;-70
2020/12/02 04:17:57;;;;;;;37.60;16.77;;;1.50;77.60;;;;;;5091123;28;20040;-69
2020/12/02 04:20:24;;;;;;;36.83;15.77;;;1.50;77.60;;;;;;5090728;28;20065;-70
2020/12/02 04:22:53;;;;;;;32.30;15.25;;;1.50;77.70;;;;;;5087313;28;20044;-73
2020/12/02 04:25:23;;;;;;;37.38;15.60;;;1.50;77.60;;;;;;5089580;28;20073;-70
2020/12/02 04:27:50;;;;;;;33.42;15.68;;;1.60;77.80;;;;;;5091107;28;20066;-71
2020/12/02 04:30:18;;;;;;;38.58;15.90;;;1.50;77.30;;;;;;5090508;28;20052;-70
2020/12/02 04:32:45;;;;;;;34.58;16.17;;;1.50;77.60;;;;;;5086337;28;20052;-69
2020/12/02 04:35:12;;;;;;;36.88;16.48;;;1.60;77.70;;;;;;5089304;28;20044;-70
2020/12/02 04:37:39;;;;;;;37.70;15.85;;;1.60;77.60;;;;;;5090960;28;20044;-69
2020/12/02 04:40:12;;;;;;;39.00;15.88;;;1.50;77.20;;;;;;5089366;28;20051;-70
2020/12/02 04:42:45;;;;;;;34.38;16.27;;;1.50;77.40;;;;;;5085939;28;20048;-72
2020/12/02 04:45:16;;;;;;;35.88;16.63;;;1.50;77.40;;;;;;5088803;28;20508;-70
2020/12/02 04:47:43;;;;;;;34.15;15.98;;;1.50;77.50;;;;;;5090234;28;20127;-70
2020/12/02 04:50:18;;;;;;;33.20;15.65;;;1.60;77.30;;;;;;5090471;28;20048;-70
2020/12/02 04:53:00;;;;;;;32.00;16.20;;;1.60;77.20;;;;;;5086094;28;20530;-71
2020/12/02 04:55:28;;;;;;;33.13;16.10;;;1.60;76.50;;;;;;5088276;28;20129;-70
2020/12/02 05:01:52;;;;;;;33.92;15.02;;;1.50;75.10;;;;;;5082549;28;20078;-70
2020/12/02 05:04:24;;;;;;;28.25;14.60;;;1.50;75.40;;;;;;5088799;28;20404;-70
2020/12/02 05:07:06;;;;;;;30.55;15.00;;;1.50;75.70;;;;;;5088288;28;20054;-70
2020/12/02 05:09:35;;;;;;;31.55;15.38;;;1.50;75.70;;;;;;5090250;28;20057;-70
2020/12/02 05:12:05;;;;;;;31.02;15.30;;;1.50;75.70;;;;;;5086138;28;20055;-70
2020/12/02 05:14:35;;;;;;;29.23;15.55;;;1.60;76.10;;;;;;5088619;28;20044;-69
2020/12/02 05:17:22;;;;;;;29.45;14.75;;;1.60;75.80;;;;;;5089587;28;20052;-70
2020/12/02 05:20:05;;;;;;;27.27;13.80;;;1.60;74.20;;;;;;5089230;28;20047;-69
2020/12/02 05:22:34;;;;;;;31.40;15.20;;;1.60;74.50;;;;;;5085978;28;20486;-70
2020/12/02 05:25:01;;;;;;;29.65;15.43;;;1.60;73.40;;;;;;5088417;28;20043;-70
2020/12/02 05:27:32;;;;;;;32.95;15.52;;;1.50;73.30;;;;;;5090192;28;20419;-69
2020/12/02 05:30:18;;;;;;;31.88;15.88;;;1.60;74.50;;;;;;5090951;28;20044;-68
2020/12/02 05:33:00;;;;;;;31.83;15.75;;;1.50;73.70;;;;;;5085899;28;20059;-69
2020/12/02 05:35:29;;;;;;;29.60;15.73;;;1.50;74.00;;;;;;5090697;28;20041;-68
2020/12/02 05:37:56;;;;;;;34.83;16.80;;;1.50;73.90;;;;;;5091144;28;20662;-69
2020/12/02 05:40:23;;;;;;;34.70;16.52;;;1.50;73.90;;;;;;5090567;28;20048;-68
2020/12/02 05:42:56;;;;;;;28.35;15.00;;;1.60;73.20;;;;;;5086036;28;20056;-69
2020/12/02 05:45:28;;;;;;;29.55;15.43;;;1.60;73.50;;;;;;5090048;28;20052;-68
2020/12/02 05:47:56;;;;;;;28.60;15.32;;;1.60;72.80;;;;;;5089277;28;20508;-70
2020/12/02 05:50:24;;;;;;;32.78;15.85;;;1.60;72.60;;;;;;5088094;28;20059;-70
2020/12/02 05:53:00;;;;;;;27.95;14.93;;;1.50;72.20;;;;;;5084487;28;20056;-70
2020/12/02 05:55:31;;;;;;;26.58;13.57;;;1.60;72.40;;;;;;5087526;28;20055;-70
2020/12/02 05:58:04;;;;;;;28.85;14.45;;;1.60;71.30;;;;;;5089075;28;20243;-70
2020/12/02 06:00:32;;;;;;;27.08;15.35;;;1.60;71.30;;;;;;5087422;28;20052;-70
2020/12/02 06:03:00;;;;;;;26.00;14.07;;;1.60;70.60;;;;;;5085805;28;20055;-69
2020/12/02 06:05:28;;;;;;;27.23;14.75;;;1.60;70.00;;;;;;5088089;28;20044;-69
2020/12/02 06:08:01;;;;;;;28.58;14.80;;;1.60;70.40;;;;;;5089181;28;20044;-69
2020/12/02 06:10:32;;;;;;;28.17;15.25;;;1.60;71.20;;;;;;5086884;28;20044;-69
2020/12/02 06:13:00;;;;;;;28.08;14.48;;;1.70;71.20;;;;;;5086127;28;20055;-69
2020/12/02 06:15:35;;;;;;;26.42;14.18;;;1.60;71.10;;;;;;5087987;28;20040;-69
2020/12/02 06:18:20;;;;;;;25.08;14.60;;;1.60;70.10;;;;;;5088473;28;20050;-69
2020/12/02 06:20:49;;;;;;;23.67;13.15;;;1.60;70.60;;;;;;5085868;28;20062;-69
2020/12/02 06:23:15;;;;;;;24.15;13.63;;;1.60;69.60;;;;;;5085957;28;20051;-70
2020/12/02 06:25:48;;;;;;;28.08;14.48;;;1.60;70.40;;;;;;5087551;28;20052;-68
2020/12/02 06:28:43;;;;;;;26.08;14.85;;;1.60;71.30;;;;;;5088589;28;20040;-69
2020/12/02 06:31:19;;;;;;;28.10;14.60;;;1.60;69.90;;;;;;5085626;28;20139;-70
2020/12/02 06:33:48;;;;;;;28.05;15.25;;;1.50;70.70;;;;;;5084779;28;20055;-70
2020/12/02 06:36:19;;;;;;;26.80;13.57;;;1.50;70.40;;;;;;5087629;28;20044;-70
2020/12/02 06:38:48;;;;;;;26.05;13.60;;;1.50;71.00;;;;;;5087819;28;20047;-69
2020/12/02 06:41:37;;;;;;;25.08;14.57;;;1.50;69.70;;;;;;5086203;28;20044;-71
2020/12/02 06:44:36;;;;;;;30.00;15.23;;;1.50;69.60;;;;;;5086393;28;20051;-70
2020/12/02 06:47:28;;;;;;;28.15;14.98;;;1.60;70.00;;;;;;5082507;28;20052;-71
2020/12/02 06:50:03;;;;;;;33.13;16.27;;;1.60;70.00;;;;;;5089083;28;20059;-70
2020/12/02 06:52:33;;;;;;;31.08;16.52;;;1.60;69.00;;;;;;5084985;28;20445;-71
2020/12/02 06:55:08;;;;;;;31.05;16.08;;;1.60;69.20;;;;;;5087146;28;20054;-71
2020/12/02 06:57:35;;;;;;;30.63;15.63;;;1.60;69.90;;;;;;5089341;28;20052;-70
2020/12/02 07:00:07;;;;;;;28.95;15.10;;;1.60;68.80;;;;;;5088292;28;20044;-70
2020/12/02 07:02:40;;;;;;;29.20;14.77;;;1.60;69.10;;;;;;5084472;28;20386;-71
2020/12/02 07:05:14;;;;;;;31.73;15.73;;;1.60;69.70;;;;;;5086651;28;20056;-67
2020/12/02 07:07:41;;;;;;;35.00;16.27;;;1.60;70.00;;;;;;5088528;28;20428;-73
2020/12/02 07:10:16;;;;;;;27.92;15.73;;;1.50;69.30;;;;;;5088578;28;20058;-70
2020/12/02 07:12:44;;;;;;;34.00;16.80;;;1.50;70.40;;;;;;5083958;28;20070;-70
2020/12/02 07:15:14;;;;;;;27.42;15.00;;;1.50;70.80;;;;;;5085754;28;20048;-70
2020/12/02 07:17:42;;;;;;;30.83;15.15;;;1.50;71.20;;;;;;5088578;28;20071;-71
2020/12/02 07:20:14;;;;;;;31.10;16.00;;;1.60;71.30;;;;;;5087983;28;20040;-68
2020/12/02 07:22:49;;;;;;;30.50;15.35;;;1.60;71.30;;;;;;5087712;28;20052;-71
2020/12/02 07:25:15;;;;;;;29.05;15.30;;;1.60;71.30;;;;;;5090530;28;20059;-70
2020/12/02 07:27:44;;;;;;;29.58;14.55;;;1.60;71.30;;;;;;5092429;28;20054;-70
2020/12/02 07:30:20;;;;;;;30.00;15.52;;;1.60;70.40;;;;;;5092438;28;20505;-72
2020/12/02 07:32:46;;;;;;;31.27;14.50;;;1.60;71.30;;;;;;5088063;28;20055;-68
2020/12/02 07:35:16;;;;;;;26.85;14.20;;;1.70;71.40;;;;;;5090388;28;20056;-70
2020/12/02 07:37:43;;;;;;;26.88;15.18;;;1.70;71.40;;;;;;5092519;28;20071;-69
2020/12/02 07:40:28;;;;;;;30.38;15.75;;;1.80;69.70;;;;;;5091648;28;20066;-69
2020/12/02 07:42:57;;;;;;;34.58;16.92;;;1.70;70.00;;;;;;5089176;28;20059;-71
2020/12/02 07:45:28;;;;;;;33.85;16.63;;;1.80;69.20;;;;;;5090104;28;20048;-71
2020/12/02 07:48:00;;;;;;;32.10;16.75;;;1.80;69.60;;;;;;5090310;28;20501;-70
2020/12/02 07:50:31;;;;;;;29.80;16.45;;;1.80;69.30;;;;;;5090298;28;20060;-69
2020/12/02 07:53:06;;;;;;;29.75;15.90;;;1.90;69.00;;;;;;5089448;28;20059;-70
2020/12/02 07:55:35;;;;;;;;;;;1.90;66.20;;;;;;5090505;28;20055;-70
2020/12/02 07:58:02;;;;;;;33.88;16.27;;;1.90;67.00;;;;;;5092085;28;19939;-69
2020/12/02 08:00:37;;;;;;;31.63;16.65;;;2.00;67.60;;;;;;5091036;28;20067;-68
2020/12/02 08:03:05;;;;;;;33.47;16.73;;;2.00;66.90;;;;;;5089339;28;20062;-71
2020/12/02 08:05:46;;;;;;;31.77;16.98;;;1.90;67.30;;;;;;5089941;28;20044;-71
2020/12/02 08:08:13;;;;;;;29.98;15.57;;;1.90;64.90;;;;;;5091637;28;20044;-71
2020/12/02 08:10:41;;;;;;;30.13;15.50;;;2.00;63.60;;;;;;5089925;28;20044;-71
2020/12/02 08:13:15;;;;;;;30.67;16.58;;;2.00;65.10;;;;;;5089036;28;20040;-70
2020/12/02 08:15:46;;;;;;;31.33;17.20;;;2.00;63.60;;;;;;5090578;28;20040;-71
2020/12/02 08:18:17;;;;;;;35.25;16.42;;;2.00;65.80;;;;;;5091685;28;20372;-71
2020/12/02 08:20:45;;;;;;;35.00;17.63;;;2.00;66.20;;;;;;5089835;28;20055;-72
2020/12/02 08:23:17;;;;;;;32.22;16.05;;;2.00;65.20;;;;;;5089464;28;20059;-73
2020/12/02 08:25:55;;;;;;;30.20;16.02;;;2.00;65.90;;;;;;5089065;28;20055;-70
2020/12/02 08:28:24;;;;;;;33.20;16.40;;;2.00;64.90;;;;;;5090979;28;20062;-71
2020/12/02 08:31:05;;;;;;;30.52;15.82;;;2.00;65.20;;;;;;5091568;28;20056;-67
2020/12/02 08:33:32;;;;;;;31.05;16.35;;;2.00;63.70;;;;;;5085645;28;20044;-68
2020/12/02 08:36:06;;;;;;;33.38;15.73;;;2.00;65.70;;;;;;5092226;28;20052;-73
2020/12/02 08:38:37;;;;;;;34.05;16.30;;;2.00;64.00;;;;;;5091732;28;20044;-73
2020/12/02 08:41:15;;;;;;;31.33;15.15;;;2.00;65.40;;;;;;5090776;28;20512;-68
2020/12/02 08:43:47;;;;;;;29.90;15.60;;;2.00;62.80;;;;;;5090234;28;20066;-70
2020/12/02 08:46:20;;;;;;;32.15;16.48;;;2.00;63.60;;;;;;5092377;28;20054;-69
2020/12/02 08:48:56;;;;;;;33.78;16.55;;;2.00;62.80;;;;;;5092163;28;20072;-72
2020/12/02 08:51:24;;;;;;;32.17;16.52;;;2.10;63.70;;;;;;5086373;28;20047;-69
2020/12/02 08:53:52;;;;;;;30.90;15.90;;;2.20;61.50;;;;;;5089964;28;20047;-68
2020/12/02 08:56:33;;;;;;;30.65;15.90;;;2.10;59.60;;;;;;5091832;28;20493;-69
2020/12/02 08:59:01;;;;;;;29.23;15.25;;;2.10;58.60;;;;;;5091997;28;20052;-72
2020/12/02 09:01:27;;;;;;;25.45;13.88;;;2.20;55.40;;;;;;5090680;28;20138;-68
2020/12/02 09:03:54;;;;;;;26.13;13.73;;;2.10;55.00;;;;;;5089305;28;20050;-69
2020/12/02 09:06:22;;;;;;;28.38;14.57;;;2.10;55.20;;;;;;5091678;28;20473;-68
2020/12/02 09:08:50;;;;;;;27.80;14.50;;;2.10;55.00;;;;;;5091914;28;20056;-69
2020/12/02 09:11:21;;;;;;;24.88;13.35;;;2.10;55.00;;;;;;5090639;28;20494;-68
2020/12/02 09:13:49;;;;;;;25.90;13.63;;;2.10;53.20;;;;;;5087894;28;21054;-71
2020/12/02 09:16:22;;;;;;;26.52;12.80;;;2.10;53.30;;;;;;5091831;28;20052;-72
2020/12/02 09:18:49;;;;;;;28.75;14.23;;;2.10;53.20;;;;;;5092414;28;20412;-71
2020/12/02 09:21:16;;;;;;;24.80;12.52;;;2.10;51.90;;;;;;5090752;28;20056;-70
2020/12/02 09:23:43;;;;;;;26.70;13.85;;;2.20;51.00;;;;;;5089891;28;20493;-68
2020/12/02 09:26:09;;;;;;;27.30;13.55;;;2.10;50.70;;;;;;5091557;28;20044;-67
2020/12/02 09:28:36;;;;;;;24.45;12.75;;;2.10;48.50;;;;;;5091590;28;20055;-72
2020/12/02 09:31:04;;;;;;;25.63;12.80;;;2.10;48.20;;;;;;5090877;28;20056;-68
2020/12/02 09:33:31;;;;;;;27.33;13.02;;;2.10;47.90;;;;;;5090305;28;20052;-68
2020/12/02 09:35:57;;;;;;;26.27;13.23;;;2.10;47.90;;;;;;5091717;28;20052;-68
2020/12/02 09:38:24;;;;;;;26.98;13.43;;;2.10;49.10;;;;;;5090979;28;20059;-70
2020/12/02 09:40:51;;;;;;;25.02;13.07;;;2.10;47.90;;;;;;5087518;28;20078;-70
2020/12/02 09:43:34;;;;;;;26.65;12.05;;;2.10;48.20;;;;;;5087172;28;20067;-69
2020/12/02 09:46:07;;;;;;;24.90;12.60;;;2.10;45.00;;;;;;5088445;28;20052;-70
2020/12/02 09:48:34;;;;;;;26.02;11.73;;;2.20;44.60;;;;;;5086763;28;20056;-70
2020/12/02 09:51:15;;;;;;;18.85;9.20;;;2.20;43.90;;;;;;5087308;28;20105;-69
2020/12/02 09:53:43;;;;;;;19.90;10.80;;;2.20;37.70;;;;;;5085106;28;20523;-68
2020/12/02 09:56:11;;;;;;;24.13;11.23;;;2.20;36.90;;;;;;5090896;28;20449;-69
2020/12/02 09:58:39;;;;;;;23.80;11.55;;;2.20;39.20;;;;;;5090345;28;20066;-68
2020/12/02 10:01:15;;;;;;;20.98;11.15;;;2.20;39.20;;;;;;5089870;28;20127;-68
2020/12/02 10:04:16;;;;;;;18.55;10.20;;;2.20;40.80;;;;;;5089271;28;20044;-71
2020/12/02 10:06:53;;;;;;;23.00;11.15;;;2.10;37.90;;;;;;5054845;28;20048;-72
2020/12/02 10:09:53;;;;;;;22.95;11.50;;;2.20;39.50;;;;;;5090844;28;20056;-76
2020/12/02 10:12:32;;;;;;;24.13;11.30;;;2.20;36.90;;;;;;5086863;28;20511;-70
2020/12/02 10:15:14;;;;;;;25.08;11.13;;;2.20;39.10;;;;;;5087500;28;20059;-69
2020/12/02 10:18:10;;;;;;;21.95;11.32;;;2.20;37.50;;;;;;5090306;28;20044;-70
2020/12/02 10:20:42;;;;;;;23.10;11.80;;;2.20;38.30;;;;;;5081007;28;20402;-67
2020/12/02 10:23:20;;;;;;;23.25;12.20;;;2.20;37.40;;;;;;5090249;28;20056;-68
2020/12/02 10:26:37;;;;;;;23.63;11.90;;;2.30;37.80;;;;;;5087730;28;20135;-68
2020/12/02 10:29:12;;;;;;;26.65;11.90;;;2.20;36.40;;;;;;5090886;28;20044;-69
2020/12/02 10:31:51;;;;;;;27.60;12.73;;;2.20;37.70;;;;;;5088510;28;20079;-68
2020/12/02 10:34:23;;;;;;;23.33;13.05;;;2.30;39.00;;;;;;5089573;28;20044;-71
2020/12/02 10:36:53;;;;;;;23.25;11.77;;;2.30;39.20;;;;;;5087088;28;20512;-68
2020/12/02 10:39:24;;;;;;;26.02;12.10;;;2.30;37.50;;;;;;5091336;28;20051;-66
2020/12/02 10:42:10;;;;;;;24.17;12.93;;;2.30;37.00;;;;;;5089692;28;20413;-72
2020/12/02 10:44:49;;;;;;;23.27;11.73;;;2.30;36.70;;;;;;5086499;28;20044;-71
2020/12/02 10:47:47;;;;;;;23.35;12.50;;;2.30;38.40;;;;;;5087683;28;20417;-72
2020/12/02 10:50:16;;;;;;;27.90;14.45;;;2.30;37.90;;;;;;5087001;28;20393;-71
2020/12/02 10:52:47;;;;;;;26.83;12.75;;;2.30;39.10;;;;;;5083292;28;20048;-72
2020/12/02 10:55:16;;;;;;;25.58;13.20;;;2.30;37.60;;;;;;5086144;28;20048;-72
2020/12/02 10:57:43;;;;;;;24.52;11.63;;;2.30;38.10;;;;;;5092300;28;20061;-70
2020/12/02 11:00:14;;;;;;;24.50;11.57;;;2.20;35.70;;;;;;5092408;28;20462;-71
2020/12/02 11:02:42;;;;;;;25.92;13.13;;;2.20;37.10;;;;;;5086884;28;20060;-70
2020/12/02 11:05:10;;;;;;;27.13;14.40;;;2.20;41.30;;;;;;5090673;28;20063;-72
2020/12/02 11:07:53;;;;;;;28.52;13.57;;;2.20;42.90;;;;;;5092672;28;20063;-68
2020/12/02 11:10:26;;;;;;;24.88;13.48;;;2.20;41.00;;;;;;5092244;28;20044;-69
2020/12/02 11:13:15;;;;;;;23.73;13.15;;;2.20;41.20;;;;;;5088896;28;20067;-69
2020/12/02 11:15:55;;;;;;;27.83;13.18;;;2.20;41.00;;;;;;5089079;28;20117;-69
2020/12/02 11:18:47;;;;;;;26.67;12.45;;;2.20;39.90;;;;;;5091133;28;20566;-69
2020/12/02 11:21:25;;;;;;;27.02;13.50;;;2.20;39.20;;;;;;5087937;28;20046;-69
2020/12/02 11:24:07;;;;;;;30.85;13.27;;;2.20;40.30;;;;;;5087465;28;20123;-69
2020/12/02 11:26:36;;;;;;;25.23;13.23;;;2.30;39.70;;;;;;5091686;28;20066;-70
2020/12/02 11:29:07;;;;;;;28.02;13.15;;;2.30;38.70;;;;;;5089641;28;20048;-69
2020/12/02 11:31:51;;;;;;;26.00;13.38;;;2.20;38.50;;;;;;5087987;28;20497;-70
2020/12/02 11:34:36;;;;;;;29.30;13.38;;;2.30;39.00;;;;;;5087688;28;20044;-71
2020/12/02 11:37:07;;;;;;;27.27;12.65;;;2.20;39.20;;;;;;5090344;28;20488;-68
2020/12/02 11:39:57;;;;;;;26.20;13.30;;;2.20;39.10;;;;;;5091358;28;20036;-69
2020/12/02 11:42:32;;;;;;;29.33;13.18;;;2.20;38.80;;;;;;5087378;28;20052;-68
2020/12/02 11:45:03;;;;;;;25.92;12.90;;;2.20;39.10;;;;;;5087163;28;20063;-69
2020/12/02 11:47:43;;;;;;;29.65;13.07;;;2.30;39.90;;;;;;5090847;28;20524;-69
2020/12/02 11:50:17;;;;;;;25.10;12.50;;;2.30;40.00;;;;;;5086151;28;20469;-70
2020/12/02 11:52:59;;;;;;;31.13;13.68;;;2.30;41.20;;;;;;5084849;28;20044;-70
2020/12/02 11:55:32;;;;;;;28.10;13.23;;;2.20;41.30;;;;;;5086974;28;20055;-70
2020/12/02 11:58:04;;;;;;;29.88;13.30;;;2.20;38.30;;;;;;5090821;28;20050;-69
2020/12/02 12:00:31;;;;;;;30.38;13.23;;;2.20;39.00;;;;;;5087933;28;20056;-69
2020/12/02 12:03:14;;;;;;;29.35;13.05;;;2.30;38.10;;;;;;5088162;28;20044;-69
2020/12/02 12:05:50;;;;;;;28.80;13.23;;;2.30;36.10;;;;;;5089189;28;20055;-70
2020/12/02 12:08:27;;;;;;;32.08;12.30;;;2.20;35.70;;;;;;5088518;28;20050;-71
2020/12/02 12:10:58;;;;;;;31.05;13.25;;;2.20;35.80;;;;;;5087544;28;20059;-70
2020/12/02 12:13:32;;;;;;;31.02;14.35;;;2.20;36.20;;;;;;5086409;28;20048;-69
2020/12/02 12:16:02;;;;;;;30.52;14.80;;;2.20;38.10;;;;;;5089110;28;20126;-69
2020/12/02 12:18:45;;;;;;;32.58;14.10;;;2.20;38.70;;;;;;5088054;28;20046;-69
2020/12/02 12:21:24;;;;;;;32.28;13.50;;;2.20;37.20;;;;;;5088744;28;20040;-70
2020/12/02 12:24:00;;;;;;;32.88;14.80;;;2.10;38.00;;;;;;5086630;28;20044;-69
2020/12/02 12:26:31;;;;;;;32.00;13.80;;;2.10;36.20;;;;;;5088700;28;20606;-68
2020/12/02 12:28:58;;;;;;;32.50;14.25;;;2.10;36.60;;;;;;5090161;28;20040;-69
2020/12/02 12:31:33;;;;;;;32.15;14.65;;;2.10;36.70;;;;;;5086738;28;20676;-70
2020/12/02 12:34:09;;;;;;;29.60;14.00;;;2.10;37.50;;;;;;5086015;28;20048;-70
2020/12/02 12:36:37;;;;;;;29.98;14.20;;;2.10;37.20;;;;;;5089306;28;20044;-69
2020/12/02 12:39:12;;;;;;;32.45;14.50;;;2.10;36.10;;;;;;5090299;28;20082;-69
2020/12/02 12:41:42;;;;;;;;;;;2.10;37.70;;;;;;5088556;28;20101;-69
2020/12/02 12:44:13;;;;;;;31.20;14.43;;;2.00;38.20;;;;;;5085530;28;20436;-69
2020/12/02 12:46:45;;;;;;;31.08;14.38;;;2.00;39.30;;;;;;5090004;28;20048;-69
2020/12/02 12:49:14;;;;;;;31.77;15.57;;;2.10;38.50;;;;;;5088450;28;20054;-70
2020/12/02 12:51:46;;;;;;;33.03;14.57;;;2.10;39.40;;;;;;5088624;28;20424;-69
2020/12/02 12:54:16;;;;;;;33.25;14.40;;;2.10;40.00;;;;;;5086518;28;20036;-70
2020/12/02 12:56:45;;;;;;;39.00;19.15;;;2.10;41.70;;;;;;5089720;28;20047;-70
2020/12/02 12:59:15;;;;;;;42.33;19.98;;;2.00;42.40;;;;;;5088272;28;20040;-70
2020/12/02 13:01:46;;;;;;;32.85;15.23;;;2.00;43.80;;;;;;5087109;28;20063;-69
2020/12/02 13:04:15;;;;;;;36.58;16.35;;;2.00;44.70;;;;;;5086232;28;20063;-71
2020/12/02 13:07:06;;;;;;;33.20;16.02;;;1.90;43.90;;;;;;5090086;28;20052;-71